sensor_id;sensor_type;location;lat;lon;timestamp;P1;durP1;ratioP1;P2;durP2;ratioP2
22030;SDS011;11179;52.106;21.024;2023-07-29T00:01:23;10.87;;;5.73;;
22030;SDS011;11179;52.106;21.024;2023-07-29T00:03:49;12.20;;;5.13;;
22030;SDS011;11179;52.106;21.024;2023-07-29T00:06:14;12.07;;;5.80;;
22030;SDS011;11179;52.106;21.024;2023-07-29T00:08:40;12.53;;;5.87;;
22030;SDS011;11179;52.106;21.024;2023-07-29T00:11:05;16.00;;;4.87;;
22030;SDS011;11179;52.106;21.024;2023-07-29T00:13:30;11.37;;;5.50;;
22030;SDS011;11179;52.106;21.024;2023-07-29T00:15:56;9.10;;;5.57;;
22030;SDS011;11179;52.106;21.024;2023-07-29T00:18:22;11.40;;;5.20;;
22030;SDS011;11179;52.106;21.024;2023-07-29T00:20:57;10.60;;;5.77;;
22030;SDS011;11179;52.106;21.024;2023-07-29T00:23:25;12.07;;;6.50;;
22030;SDS011;11179;52.106;21.024;2023-07-29T00:25:59;11.57;;;5.97;;
22030;SDS011;11179;52.106;21.024;2023-07-29T00:28:26;10.23;;;5.97;;
22030;SDS011;11179;52.106;21.024;2023-07-29T00:30:55;12.97;;;5.50;;
22030;SDS011;11179;52.106;21.024;2023-07-29T00:33:23;13.57;;;5.80;;
22030;SDS011;11179;52.106;21.024;2023-07-29T00:35:51;13.13;;;5.30;;
22030;SDS011;11179;52.106;21.024;2023-07-29T00:38:17;10.30;;;5.87;;
22030;SDS011;11179;52.106;21.024;2023-07-29T00:40:42;15.23;;;6.53;;
22030;SDS011;11179;52.106;21.024;2023-07-29T00:43:11;13.43;;;5.77;;
22030;SDS011;11179;52.106;21.024;2023-07-29T00:45:36;11.60;;;5.60;;
22030;SDS011;11179;52.106;21.024;2023-07-29T00:48:03;12.30;;;5.97;;
22030;SDS011;11179;52.106;21.024;2023-07-29T00:50:30;10.37;;;5.83;;
22030;SDS011;11179;52.106;21.024;2023-07-29T00:53:06;11.50;;;6.13;;
22030;SDS011;11179;52.106;21.024;2023-07-29T00:55:42;10.77;;;5.90;;
22030;SDS011;11179;52.106;21.024;2023-07-29T00:58:17;14.40;;;5.60;;
22030;SDS011;11179;52.106;21.024;2023-07-29T01:00:43;10.00;;;5.50;;
22030;SDS011;11179;52.106;21.024;2023-07-29T01:03:11;12.17;;;5.60;;
22030;SDS011;11179;52.106;21.024;2023-07-29T01:05:52;13.90;;;6.47;;
22030;SDS011;11179;52.106;21.024;2023-07-29T01:14:07;10.00;;;5.80;;
22030;SDS011;11179;52.106;21.024;2023-07-29T01:16:43;10.27;;;5.73;;
22030;SDS011;11179;52.106;21.024;2023-07-29T01:19:37;11.60;;;6.53;;
22030;SDS011;11179;52.106;21.024;2023-07-29T01:22:06;11.03;;;5.70;;
22030;SDS011;11179;52.106;21.024;2023-07-29T01:24:32;14.40;;;5.77;;
22030;SDS011;11179;52.106;21.024;2023-07-29T01:26:58;17.23;;;5.93;;
22030;SDS011;11179;52.106;21.024;2023-07-29T01:29:23;12.50;;;6.30;;
22030;SDS011;11179;52.106;21.024;2023-07-29T01:31:48;11.63;;;5.70;;
22030;SDS011;11179;52.106;21.024;2023-07-29T01:34:22;15.23;;;6.17;;
22030;SDS011;11179;52.106;21.024;2023-07-29T01:36:53;11.50;;;6.23;;
22030;SDS011;11179;52.106;21.024;2023-07-29T01:39:21;13.33;;;6.63;;
22030;SDS011;11179;52.106;21.024;2023-07-29T01:41:48;10.93;;;6.30;;
22030;SDS011;11179;52.106;21.024;2023-07-29T01:44:15;14.73;;;7.80;;
22030;SDS011;11179;52.106;21.024;2023-07-29T01:46:43;16.47;;;8.03;;
22030;SDS011;11179;52.106;21.024;2023-07-29T01:49:09;19.70;;;9.27;;
22030;SDS011;11179;52.106;21.024;2023-07-29T01:51:34;17.70;;;9.70;;
22030;SDS011;11179;52.106;21.024;2023-07-29T01:54:00;16.60;;;8.17;;
22030;SDS011;11179;52.106;21.024;2023-07-29T01:56:26;23.00;;;11.40;;
22030;SDS011;11179;52.106;21.024;2023-07-29T01:58:51;17.40;;;10.33;;
22030;SDS011;11179;52.106;21.024;2023-07-29T02:01:16;22.70;;;11.10;;
22030;SDS011;11179;52.106;21.024;2023-07-29T02:03:43;20.43;;;11.80;;
22030;SDS011;11179;52.106;21.024;2023-07-29T02:06:08;20.90;;;12.13;;
22030;SDS011;11179;52.106;21.024;2023-07-29T02:08:34;27.50;;;13.07;;
22030;SDS011;11179;52.106;21.024;2023-07-29T02:10:59;23.10;;;12.63;;
22030;SDS011;11179;52.106;21.024;2023-07-29T02:13:24;28.10;;;13.90;;
22030;SDS011;11179;52.106;21.024;2023-07-29T02:15:50;21.63;;;11.93;;
22030;SDS011;11179;52.106;21.024;2023-07-29T02:18:15;24.73;;;12.47;;
22030;SDS011;11179;52.106;21.024;2023-07-29T02:20:40;22.67;;;12.20;;
22030;SDS011;11179;52.106;21.024;2023-07-29T02:23:07;23.57;;;13.00;;
22030;SDS011;11179;52.106;21.024;2023-07-29T02:25:34;30.60;;;13.80;;
22030;SDS011;11179;52.106;21.024;2023-07-29T02:28:00;23.00;;;12.80;;
22030;SDS011;11179;52.106;21.024;2023-07-29T02:30:26;24.03;;;12.37;;
22030;SDS011;11179;52.106;21.024;2023-07-29T02:32:51;22.17;;;13.00;;
22030;SDS011;11179;52.106;21.024;2023-07-29T02:35:16;21.60;;;12.07;;
22030;SDS011;11179;52.106;21.024;2023-07-29T02:37:42;26.23;;;12.83;;
22030;SDS011;11179;52.106;21.024;2023-07-29T02:40:07;25.93;;;13.70;;
22030;SDS011;11179;52.106;21.024;2023-07-29T02:42:33;27.33;;;13.03;;
22030;SDS011;11179;52.106;21.024;2023-07-29T02:44:58;29.03;;;13.00;;
22030;SDS011;11179;52.106;21.024;2023-07-29T02:47:24;24.73;;;13.60;;
22030;SDS011;11179;52.106;21.024;2023-07-29T02:49:49;24.20;;;14.30;;
22030;SDS011;11179;52.106;21.024;2023-07-29T02:52:15;24.40;;;13.30;;
22030;SDS011;11179;52.106;21.024;2023-07-29T02:54:40;25.27;;;14.17;;
22030;SDS011;11179;52.106;21.024;2023-07-29T02:57:06;27.27;;;14.63;;
22030;SDS011;11179;52.106;21.024;2023-07-29T02:59:31;29.70;;;14.93;;
22030;SDS011;11179;52.106;21.024;2023-07-29T03:01:56;27.70;;;14.30;;
22030;SDS011;11179;52.106;21.024;2023-07-29T03:04:21;24.30;;;13.67;;
22030;SDS011;11179;52.106;21.024;2023-07-29T03:06:48;25.93;;;14.13;;
22030;SDS011;11179;52.106;21.024;2023-07-29T03:09:13;27.00;;;14.00;;
22030;SDS011;11179;52.106;21.024;2023-07-29T03:11:39;29.90;;;15.07;;
22030;SDS011;11179;52.106;21.024;2023-07-29T03:14:04;32.63;;;15.33;;
22030;SDS011;11179;52.106;21.024;2023-07-29T03:16:29;29.17;;;15.70;;
22030;SDS011;11179;52.106;21.024;2023-07-29T03:18:54;27.47;;;14.30;;
22030;SDS011;11179;52.106;21.024;2023-07-29T03:21:20;32.57;;;14.50;;
22030;SDS011;11179;52.106;21.024;2023-07-29T03:23:45;25.17;;;14.40;;
22030;SDS011;11179;52.106;21.024;2023-07-29T03:26:10;30.77;;;14.93;;
22030;SDS011;11179;52.106;21.024;2023-07-29T03:28:44;29.40;;;15.40;;
22030;SDS011;11179;52.106;21.024;2023-07-29T03:31:10;29.80;;;16.67;;
22030;SDS011;11179;52.106;21.024;2023-07-29T03:33:36;40.27;;;15.47;;
22030;SDS011;11179;52.106;21.024;2023-07-29T03:36:02;34.90;;;15.47;;
22030;SDS011;11179;52.106;21.024;2023-07-29T03:38:27;22.73;;;12.80;;
22030;SDS011;11179;52.106;21.024;2023-07-29T03:40:52;24.20;;;12.93;;
22030;SDS011;11179;52.106;21.024;2023-07-29T03:43:18;24.57;;;12.50;;
22030;SDS011;11179;52.106;21.024;2023-07-29T03:45:43;39.60;;;13.07;;
22030;SDS011;11179;52.106;21.024;2023-07-29T03:48:09;48.43;;;13.93;;
22030;SDS011;11179;52.106;21.024;2023-07-29T03:50:35;29.97;;;13.50;;
22030;SDS011;11179;52.106;21.024;2023-07-29T03:53:04;41.40;;;14.73;;
22030;SDS011;11179;52.106;21.024;2023-07-29T03:55:30;34.00;;;13.73;;
22030;SDS011;11179;52.106;21.024;2023-07-29T03:57:59;39.80;;;13.57;;
22030;SDS011;11179;52.106;21.024;2023-07-29T04:00:25;23.33;;;13.83;;
22030;SDS011;11179;52.106;21.024;2023-07-29T04:02:51;33.43;;;13.83;;
22030;SDS011;11179;52.106;21.024;2023-07-29T04:05:16;33.33;;;12.30;;
22030;SDS011;11179;52.106;21.024;2023-07-29T04:07:41;32.57;;;12.97;;
22030;SDS011;11179;52.106;21.024;2023-07-29T04:10:07;34.03;;;12.90;;
22030;SDS011;11179;52.106;21.024;2023-07-29T04:12:33;23.00;;;13.27;;
22030;SDS011;11179;52.106;21.024;2023-07-29T04:14:58;23.30;;;12.00;;
22030;SDS011;11179;52.106;21.024;2023-07-29T04:17:23;27.63;;;11.83;;
22030;SDS011;11179;52.106;21.024;2023-07-29T04:19:49;41.97;;;13.83;;
22030;SDS011;11179;52.106;21.024;2023-07-29T04:22:15;22.07;;;12.30;;
22030;SDS011;11179;52.106;21.024;2023-07-29T04:24:41;28.07;;;12.47;;
22030;SDS011;11179;52.106;21.024;2023-07-29T04:27:06;19.83;;;11.23;;
22030;SDS011;11179;52.106;21.024;2023-07-29T04:29:31;21.80;;;12.20;;
22030;SDS011;11179;52.106;21.024;2023-07-29T04:31:57;20.47;;;12.20;;
22030;SDS011;11179;52.106;21.024;2023-07-29T04:34:22;24.23;;;13.53;;
22030;SDS011;11179;52.106;21.024;2023-07-29T04:36:48;27.10;;;14.10;;
22030;SDS011;11179;52.106;21.024;2023-07-29T04:39:13;25.80;;;13.60;;
22030;SDS011;11179;52.106;21.024;2023-07-29T04:41:39;25.23;;;13.67;;
22030;SDS011;11179;52.106;21.024;2023-07-29T04:44:04;28.43;;;15.07;;
22030;SDS011;11179;52.106;21.024;2023-07-29T04:46:30;23.67;;;12.60;;
22030;SDS011;11179;52.106;21.024;2023-07-29T04:48:56;25.77;;;13.97;;
22030;SDS011;11179;52.106;21.024;2023-07-29T04:51:27;27.83;;;15.20;;
22030;SDS011;11179;52.106;21.024;2023-07-29T04:53:53;22.30;;;13.27;;
22030;SDS011;11179;52.106;21.024;2023-07-29T04:56:18;23.10;;;13.67;;
22030;SDS011;11179;52.106;21.024;2023-07-29T04:58:43;24.00;;;13.47;;
22030;SDS011;11179;52.106;21.024;2023-07-29T05:01:09;25.10;;;13.37;;
22030;SDS011;11179;52.106;21.024;2023-07-29T05:03:34;20.73;;;12.00;;
22030;SDS011;11179;52.106;21.024;2023-07-29T05:06:00;21.40;;;11.87;;
22030;SDS011;11179;52.106;21.024;2023-07-29T05:08:25;22.43;;;12.33;;
22030;SDS011;11179;52.106;21.024;2023-07-29T05:10:52;21.07;;;12.17;;
22030;SDS011;11179;52.106;21.024;2023-07-29T05:13:18;22.07;;;12.50;;
22030;SDS011;11179;52.106;21.024;2023-07-29T05:15:43;24.43;;;12.70;;
22030;SDS011;11179;52.106;21.024;2023-07-29T05:18:09;23.23;;;13.20;;
22030;SDS011;11179;52.106;21.024;2023-07-29T05:20:35;24.70;;;13.77;;
22030;SDS011;11179;52.106;21.024;2023-07-29T05:23:00;21.47;;;12.37;;
22030;SDS011;11179;52.106;21.024;2023-07-29T05:25:26;22.30;;;12.67;;
22030;SDS011;11179;52.106;21.024;2023-07-29T05:27:51;23.10;;;14.00;;
22030;SDS011;11179;52.106;21.024;2023-07-29T05:30:17;21.60;;;12.00;;
22030;SDS011;11179;52.106;21.024;2023-07-29T05:32:42;19.60;;;11.83;;
22030;SDS011;11179;52.106;21.024;2023-07-29T05:35:07;21.90;;;12.30;;
22030;SDS011;11179;52.106;21.024;2023-07-29T05:37:33;20.40;;;12.73;;
22030;SDS011;11179;52.106;21.024;2023-07-29T05:39:59;17.90;;;9.73;;
22030;SDS011;11179;52.106;21.024;2023-07-29T05:42:24;20.83;;;11.70;;
22030;SDS011;11179;52.106;21.024;2023-07-29T05:44:51;19.70;;;11.87;;
22030;SDS011;11179;52.106;21.024;2023-07-29T05:47:17;21.00;;;12.10;;
22030;SDS011;11179;52.106;21.024;2023-07-29T05:49:42;22.43;;;12.57;;
22030;SDS011;11179;52.106;21.024;2023-07-29T05:52:07;21.87;;;13.17;;
22030;SDS011;11179;52.106;21.024;2023-07-29T05:54:33;20.60;;;12.80;;
22030;SDS011;11179;52.106;21.024;2023-07-29T05:56:58;20.43;;;11.50;;
22030;SDS011;11179;52.106;21.024;2023-07-29T05:59:23;21.50;;;11.57;;
22030;SDS011;11179;52.106;21.024;2023-07-29T06:01:48;20.83;;;11.20;;
22030;SDS011;11179;52.106;21.024;2023-07-29T06:04:14;18.80;;;11.10;;
22030;SDS011;11179;52.106;21.024;2023-07-29T06:06:39;18.97;;;11.90;;
22030;SDS011;11179;52.106;21.024;2023-07-29T06:09:04;16.60;;;11.10;;
22030;SDS011;11179;52.106;21.024;2023-07-29T06:11:30;18.90;;;11.30;;
22030;SDS011;11179;52.106;21.024;2023-07-29T06:13:55;16.43;;;10.10;;
22030;SDS011;11179;52.106;21.024;2023-07-29T06:16:20;17.23;;;9.10;;
22030;SDS011;11179;52.106;21.024;2023-07-29T06:18:45;19.77;;;11.23;;
22030;SDS011;11179;52.106;21.024;2023-07-29T06:21:11;21.43;;;11.50;;
22030;SDS011;11179;52.106;21.024;2023-07-29T06:23:41;17.43;;;10.33;;
22030;SDS011;11179;52.106;21.024;2023-07-29T06:26:07;17.70;;;10.00;;
22030;SDS011;11179;52.106;21.024;2023-07-29T06:28:32;17.70;;;10.70;;
22030;SDS011;11179;52.106;21.024;2023-07-29T06:30:57;17.60;;;10.90;;
22030;SDS011;11179;52.106;21.024;2023-07-29T06:33:23;19.87;;;10.93;;
22030;SDS011;11179;52.106;21.024;2023-07-29T06:35:48;16.80;;;10.27;;
22030;SDS011;11179;52.106;21.024;2023-07-29T06:38:13;18.83;;;11.30;;
22030;SDS011;11179;52.106;21.024;2023-07-29T06:40:39;15.13;;;10.83;;
22030;SDS011;11179;52.106;21.024;2023-07-29T06:43:04;17.50;;;10.63;;
22030;SDS011;11179;52.106;21.024;2023-07-29T06:45:29;17.90;;;10.80;;
22030;SDS011;11179;52.106;21.024;2023-07-29T06:47:55;17.43;;;10.47;;
22030;SDS011;11179;52.106;21.024;2023-07-29T06:50:20;16.77;;;11.10;;
22030;SDS011;11179;52.106;21.024;2023-07-29T06:52:45;23.80;;;11.40;;
22030;SDS011;11179;52.106;21.024;2023-07-29T06:55:11;17.43;;;11.47;;
22030;SDS011;11179;52.106;21.024;2023-07-29T06:57:36;17.07;;;10.60;;
22030;SDS011;11179;52.106;21.024;2023-07-29T07:00:02;20.70;;;11.10;;
22030;SDS011;11179;52.106;21.024;2023-07-29T07:02:28;14.10;;;8.70;;
22030;SDS011;11179;52.106;21.024;2023-07-29T07:04:54;16.10;;;9.70;;
22030;SDS011;11179;52.106;21.024;2023-07-29T07:07:19;15.40;;;10.00;;
22030;SDS011;11179;52.106;21.024;2023-07-29T07:09:44;16.00;;;8.57;;
22030;SDS011;11179;52.106;21.024;2023-07-29T07:12:09;13.90;;;8.80;;
22030;SDS011;11179;52.106;21.024;2023-07-29T07:14:35;16.70;;;8.37;;
22030;SDS011;11179;52.106;21.024;2023-07-29T07:17:00;16.90;;;9.80;;
22030;SDS011;11179;52.106;21.024;2023-07-29T07:19:26;12.87;;;8.17;;
22030;SDS011;11179;52.106;21.024;2023-07-29T07:21:51;15.87;;;8.73;;
22030;SDS011;11179;52.106;21.024;2023-07-29T07:24:16;15.10;;;8.90;;
22030;SDS011;11179;52.106;21.024;2023-07-29T07:26:41;13.23;;;8.60;;
22030;SDS011;11179;52.106;21.024;2023-07-29T07:29:07;19.00;;;9.57;;
22030;SDS011;11179;52.106;21.024;2023-07-29T07:31:33;18.03;;;9.60;;
22030;SDS011;11179;52.106;21.024;2023-07-29T07:33:59;13.57;;;7.60;;
22030;SDS011;11179;52.106;21.024;2023-07-29T07:36:25;14.60;;;8.70;;
22030;SDS011;11179;52.106;21.024;2023-07-29T07:38:51;13.90;;;9.17;;
22030;SDS011;11179;52.106;21.024;2023-07-29T07:41:16;15.80;;;8.80;;
22030;SDS011;11179;52.106;21.024;2023-07-29T07:43:41;15.83;;;8.47;;
22030;SDS011;11179;52.106;21.024;2023-07-29T07:46:07;15.47;;;8.10;;
22030;SDS011;11179;52.106;21.024;2023-07-29T07:48:32;12.50;;;8.03;;
22030;SDS011;11179;52.106;21.024;2023-07-29T07:50:58;14.80;;;8.40;;
22030;SDS011;11179;52.106;21.024;2023-07-29T07:53:23;11.33;;;7.57;;
22030;SDS011;11179;52.106;21.024;2023-07-29T07:55:50;12.57;;;6.80;;
22030;SDS011;11179;52.106;21.024;2023-07-29T07:58:16;12.10;;;7.37;;
22030;SDS011;11179;52.106;21.024;2023-07-29T08:00:41;9.50;;;5.93;;
22030;SDS011;11179;52.106;21.024;2023-07-29T08:03:07;10.20;;;5.73;;
22030;SDS011;11179;52.106;21.024;2023-07-29T08:05:32;8.23;;;5.33;;
22030;SDS011;11179;52.106;21.024;2023-07-29T08:07:57;10.00;;;6.13;;
22030;SDS011;11179;52.106;21.024;2023-07-29T08:10:23;10.37;;;5.00;;
22030;SDS011;11179;52.106;21.024;2023-07-29T08:12:49;15.23;;;5.47;;
22030;SDS011;11179;52.106;21.024;2023-07-29T08:15:14;7.13;;;4.47;;
22030;SDS011;11179;52.106;21.024;2023-07-29T08:17:39;9.50;;;5.23;;
22030;SDS011;11179;52.106;21.024;2023-07-29T08:20:05;8.63;;;5.23;;
22030;SDS011;11179;52.106;21.024;2023-07-29T08:22:31;9.40;;;5.53;;
22030;SDS011;11179;52.106;21.024;2023-07-29T08:24:57;9.70;;;4.40;;
22030;SDS011;11179;52.106;21.024;2023-07-29T08:27:22;9.10;;;5.07;;
22030;SDS011;11179;52.106;21.024;2023-07-29T08:29:47;8.30;;;4.83;;
22030;SDS011;11179;52.106;21.024;2023-07-29T08:32:12;9.63;;;5.00;;
22030;SDS011;11179;52.106;21.024;2023-07-29T08:34:38;9.17;;;4.50;;
22030;SDS011;11179;52.106;21.024;2023-07-29T08:37:03;9.40;;;5.07;;
22030;SDS011;11179;52.106;21.024;2023-07-29T08:39:28;16.13;;;5.60;;
22030;SDS011;11179;52.106;21.024;2023-07-29T08:41:56;7.93;;;4.40;;
22030;SDS011;11179;52.106;21.024;2023-07-29T08:44:30;7.27;;;4.43;;
22030;SDS011;11179;52.106;21.024;2023-07-29T08:47:00;7.90;;;4.60;;
22030;SDS011;11179;52.106;21.024;2023-07-29T08:49:26;6.23;;;3.70;;
22030;SDS011;11179;52.106;21.024;2023-07-29T08:51:53;7.83;;;4.30;;
22030;SDS011;11179;52.106;21.024;2023-07-29T08:54:19;5.97;;;3.70;;
22030;SDS011;11179;52.106;21.024;2023-07-29T08:56:45;6.93;;;3.53;;
22030;SDS011;11179;52.106;21.024;2023-07-29T08:59:11;7.10;;;3.27;;
22030;SDS011;11179;52.106;21.024;2023-07-29T09:01:38;7.30;;;3.80;;
22030;SDS011;11179;52.106;21.024;2023-07-29T09:04:04;6.47;;;3.73;;
22030;SDS011;11179;52.106;21.024;2023-07-29T09:06:30;6.97;;;4.10;;
22030;SDS011;11179;52.106;21.024;2023-07-29T09:08:56;6.10;;;3.43;;
22030;SDS011;11179;52.106;21.024;2023-07-29T09:11:23;8.27;;;3.60;;
22030;SDS011;11179;52.106;21.024;2023-07-29T09:13:48;6.50;;;3.47;;
22030;SDS011;11179;52.106;21.024;2023-07-29T09:16:14;6.40;;;3.50;;
22030;SDS011;11179;52.106;21.024;2023-07-29T09:18:39;5.47;;;3.40;;
22030;SDS011;11179;52.106;21.024;2023-07-29T09:21:05;7.00;;;3.50;;
22030;SDS011;11179;52.106;21.024;2023-07-29T09:23:41;5.97;;;2.87;;
22030;SDS011;11179;52.106;21.024;2023-07-29T09:26:06;5.83;;;3.07;;
22030;SDS011;11179;52.106;21.024;2023-07-29T09:28:35;8.40;;;3.07;;
22030;SDS011;11179;52.106;21.024;2023-07-29T09:31:03;6.07;;;3.20;;
22030;SDS011;11179;52.106;21.024;2023-07-29T09:33:28;8.90;;;3.03;;
22030;SDS011;11179;52.106;21.024;2023-07-29T09:35:56;6.23;;;3.57;;
22030;SDS011;11179;52.106;21.024;2023-07-29T09:38:25;7.37;;;2.80;;
22030;SDS011;11179;52.106;21.024;2023-07-29T09:40:54;7.50;;;3.10;;
22030;SDS011;11179;52.106;21.024;2023-07-29T09:43:21;11.87;;;3.60;;
22030;SDS011;11179;52.106;21.024;2023-07-29T09:45:51;6.03;;;3.47;;
22030;SDS011;11179;52.106;21.024;2023-07-29T09:48:17;8.07;;;3.37;;
22030;SDS011;11179;52.106;21.024;2023-07-29T09:50:47;6.43;;;2.97;;
22030;SDS011;11179;52.106;21.024;2023-07-29T09:53:12;6.10;;;3.30;;
22030;SDS011;11179;52.106;21.024;2023-07-29T09:55:37;5.80;;;3.30;;
22030;SDS011;11179;52.106;21.024;2023-07-29T09:58:03;5.00;;;2.77;;
22030;SDS011;11179;52.106;21.024;2023-07-29T10:00:32;5.90;;;3.57;;
22030;SDS011;11179;52.106;21.024;2023-07-29T10:02:59;6.73;;;3.20;;
22030;SDS011;11179;52.106;21.024;2023-07-29T10:05:25;4.80;;;2.40;;
22030;SDS011;11179;52.106;21.024;2023-07-29T10:07:51;7.03;;;3.13;;
22030;SDS011;11179;52.106;21.024;2023-07-29T10:10:18;6.80;;;2.80;;
22030;SDS011;11179;52.106;21.024;2023-07-29T10:12:45;6.57;;;3.00;;
22030;SDS011;11179;52.106;21.024;2023-07-29T10:15:11;5.43;;;2.90;;
22030;SDS011;11179;52.106;21.024;2023-07-29T10:17:37;6.13;;;2.97;;
22030;SDS011;11179;52.106;21.024;2023-07-29T10:20:04;6.33;;;2.53;;
22030;SDS011;11179;52.106;21.024;2023-07-29T10:22:49;4.93;;;2.70;;
22030;SDS011;11179;52.106;21.024;2023-07-29T10:25:18;6.67;;;2.70;;
22030;SDS011;11179;52.106;21.024;2023-07-29T10:27:57;5.17;;;2.67;;
22030;SDS011;11179;52.106;21.024;2023-07-29T10:30:29;7.43;;;3.10;;
22030;SDS011;11179;52.106;21.024;2023-07-29T10:32:55;5.30;;;2.67;;
22030;SDS011;11179;52.106;21.024;2023-07-29T10:35:23;6.10;;;3.03;;
22030;SDS011;11179;52.106;21.024;2023-07-29T10:37:51;5.90;;;2.83;;
22030;SDS011;11179;52.106;21.024;2023-07-29T10:40:18;6.20;;;2.47;;
22030;SDS011;11179;52.106;21.024;2023-07-29T10:43:00;5.90;;;3.07;;
22030;SDS011;11179;52.106;21.024;2023-07-29T10:45:28;7.60;;;2.83;;
22030;SDS011;11179;52.106;21.024;2023-07-29T10:48:05;6.83;;;2.77;;
22030;SDS011;11179;52.106;21.024;2023-07-29T10:50:37;6.27;;;3.07;;
22030;SDS011;11179;52.106;21.024;2023-07-29T10:53:02;5.63;;;2.80;;
22030;SDS011;11179;52.106;21.024;2023-07-29T10:55:29;5.57;;;2.83;;
22030;SDS011;11179;52.106;21.024;2023-07-29T10:58:08;8.77;;;2.80;;
22030;SDS011;11179;52.106;21.024;2023-07-29T11:00:37;6.47;;;2.80;;
22030;SDS011;11179;52.106;21.024;2023-07-29T11:03:06;5.93;;;2.50;;
22030;SDS011;11179;52.106;21.024;2023-07-29T11:05:42;5.80;;;2.97;;
22030;SDS011;11179;52.106;21.024;2023-07-29T11:08:22;5.87;;;3.00;;
22030;SDS011;11179;52.106;21.024;2023-07-29T11:11:06;5.43;;;2.90;;
22030;SDS011;11179;52.106;21.024;2023-07-29T11:13:36;6.33;;;3.03;;
22030;SDS011;11179;52.106;21.024;2023-07-29T11:16:03;5.57;;;3.10;;
22030;SDS011;11179;52.106;21.024;2023-07-29T11:18:30;7.17;;;3.30;;
22030;SDS011;11179;52.106;21.024;2023-07-29T11:20:58;5.97;;;3.20;;
22030;SDS011;11179;52.106;21.024;2023-07-29T11:23:43;5.57;;;2.70;;
22030;SDS011;11179;52.106;21.024;2023-07-29T11:26:08;5.97;;;2.90;;
22030;SDS011;11179;52.106;21.024;2023-07-29T11:28:37;6.23;;;3.30;;
22030;SDS011;11179;52.106;21.024;2023-07-29T11:31:03;6.00;;;2.87;;
22030;SDS011;11179;52.106;21.024;2023-07-29T11:33:29;6.40;;;2.93;;
22030;SDS011;11179;52.106;21.024;2023-07-29T11:35:55;7.40;;;3.17;;
22030;SDS011;11179;52.106;21.024;2023-07-29T11:38:21;5.53;;;3.10;;
22030;SDS011;11179;52.106;21.024;2023-07-29T11:40:54;12.33;;;2.97;;
22030;SDS011;11179;52.106;21.024;2023-07-29T11:43:28;9.73;;;2.93;;
22030;SDS011;11179;52.106;21.024;2023-07-29T11:45:53;5.70;;;2.90;;
22030;SDS011;11179;52.106;21.024;2023-07-29T11:48:32;5.90;;;2.80;;
22030;SDS011;11179;52.106;21.024;2023-07-29T11:50:58;5.33;;;2.60;;
22030;SDS011;11179;52.106;21.024;2023-07-29T11:53:26;7.67;;;3.10;;
22030;SDS011;11179;52.106;21.024;2023-07-29T11:55:53;6.30;;;2.63;;
22030;SDS011;11179;52.106;21.024;2023-07-29T11:58:19;7.27;;;4.10;;
22030;SDS011;11179;52.106;21.024;2023-07-29T12:00:45;5.80;;;3.10;;
22030;SDS011;11179;52.106;21.024;2023-07-29T12:03:11;6.30;;;3.13;;
22030;SDS011;11179;52.106;21.024;2023-07-29T12:05:37;5.27;;;2.63;;
22030;SDS011;11179;52.106;21.024;2023-07-29T12:08:02;5.10;;;2.60;;
22030;SDS011;11179;52.106;21.024;2023-07-29T12:10:28;5.37;;;2.80;;
22030;SDS011;11179;52.106;21.024;2023-07-29T12:12:53;6.37;;;3.17;;
22030;SDS011;11179;52.106;21.024;2023-07-29T12:15:25;5.20;;;2.80;;
22030;SDS011;11179;52.106;21.024;2023-07-29T12:17:52;5.40;;;2.70;;
22030;SDS011;11179;52.106;21.024;2023-07-29T12:20:21;5.13;;;2.60;;
22030;SDS011;11179;52.106;21.024;2023-07-29T12:22:51;8.23;;;3.60;;
22030;SDS011;11179;52.106;21.024;2023-07-29T12:25:17;5.47;;;2.70;;
22030;SDS011;11179;52.106;21.024;2023-07-29T12:27:43;6.67;;;2.87;;
22030;SDS011;11179;52.106;21.024;2023-07-29T12:30:09;6.80;;;3.03;;
22030;SDS011;11179;52.106;21.024;2023-07-29T12:32:42;5.00;;;2.50;;
22030;SDS011;11179;52.106;21.024;2023-07-29T12:35:11;5.53;;;2.90;;
22030;SDS011;11179;52.106;21.024;2023-07-29T12:37:38;6.20;;;3.07;;
22030;SDS011;11179;52.106;21.024;2023-07-29T12:40:07;5.77;;;3.07;;
22030;SDS011;11179;52.106;21.024;2023-07-29T12:42:32;6.20;;;2.80;;
22030;SDS011;11179;52.106;21.024;2023-07-29T12:44:58;6.20;;;2.80;;
22030;SDS011;11179;52.106;21.024;2023-07-29T12:47:23;6.53;;;3.13;;
22030;SDS011;11179;52.106;21.024;2023-07-29T12:49:48;5.47;;;2.73;;
22030;SDS011;11179;52.106;21.024;2023-07-29T12:52:14;4.90;;;2.50;;
22030;SDS011;11179;52.106;21.024;2023-07-29T12:54:39;6.83;;;2.87;;
22030;SDS011;11179;52.106;21.024;2023-07-29T12:57:05;6.00;;;2.90;;
22030;SDS011;11179;52.106;21.024;2023-07-29T12:59:31;5.50;;;2.70;;
22030;SDS011;11179;52.106;21.024;2023-07-29T13:01:57;6.07;;;3.10;;
22030;SDS011;11179;52.106;21.024;2023-07-29T13:04:22;5.47;;;2.73;;
22030;SDS011;11179;52.106;21.024;2023-07-29T13:06:47;5.80;;;3.00;;
22030;SDS011;11179;52.106;21.024;2023-07-29T13:09:12;5.90;;;2.73;;
22030;SDS011;11179;52.106;21.024;2023-07-29T13:11:38;4.93;;;2.47;;
22030;SDS011;11179;52.106;21.024;2023-07-29T13:14:03;6.83;;;2.50;;
22030;SDS011;11179;52.106;21.024;2023-07-29T13:16:28;5.70;;;2.63;;
22030;SDS011;11179;52.106;21.024;2023-07-29T13:18:54;5.60;;;2.43;;
22030;SDS011;11179;52.106;21.024;2023-07-29T13:21:20;6.10;;;2.60;;
22030;SDS011;11179;52.106;21.024;2023-07-29T13:23:46;6.40;;;2.40;;
22030;SDS011;11179;52.106;21.024;2023-07-29T13:26:11;4.93;;;2.40;;
22030;SDS011;11179;52.106;21.024;2023-07-29T13:28:36;8.80;;;2.90;;
22030;SDS011;11179;52.106;21.024;2023-07-29T13:31:01;7.20;;;2.27;;
22030;SDS011;11179;52.106;21.024;2023-07-29T13:33:28;5.33;;;2.47;;
22030;SDS011;11179;52.106;21.024;2023-07-29T13:35:53;5.77;;;2.30;;
22030;SDS011;11179;52.106;21.024;2023-07-29T13:38:18;12.03;;;2.40;;
22030;SDS011;11179;52.106;21.024;2023-07-29T13:40:45;6.00;;;2.90;;
22030;SDS011;11179;52.106;21.024;2023-07-29T13:43:10;5.40;;;2.60;;
22030;SDS011;11179;52.106;21.024;2023-07-29T13:45:35;4.73;;;2.00;;
22030;SDS011;11179;52.106;21.024;2023-07-29T13:48:01;6.10;;;2.63;;
22030;SDS011;11179;52.106;21.024;2023-07-29T13:50:26;5.03;;;2.67;;
22030;SDS011;11179;52.106;21.024;2023-07-29T13:52:51;6.40;;;2.87;;
22030;SDS011;11179;52.106;21.024;2023-07-29T13:55:17;11.43;;;2.53;;
22030;SDS011;11179;52.106;21.024;2023-07-29T13:57:42;5.27;;;2.33;;
22030;SDS011;11179;52.106;21.024;2023-07-29T14:00:07;5.73;;;2.47;;
22030;SDS011;11179;52.106;21.024;2023-07-29T14:02:33;9.60;;;2.40;;
22030;SDS011;11179;52.106;21.024;2023-07-29T14:04:58;4.87;;;2.43;;
22030;SDS011;11179;52.106;21.024;2023-07-29T14:07:24;9.20;;;3.03;;
22030;SDS011;11179;52.106;21.024;2023-07-29T14:09:49;4.90;;;2.20;;
22030;SDS011;11179;52.106;21.024;2023-07-29T14:12:14;4.63;;;2.27;;
22030;SDS011;11179;52.106;21.024;2023-07-29T14:14:43;6.10;;;2.50;;
22030;SDS011;11179;52.106;21.024;2023-07-29T14:17:09;8.40;;;2.73;;
22030;SDS011;11179;52.106;21.024;2023-07-29T14:19:35;5.43;;;2.50;;
22030;SDS011;11179;52.106;21.024;2023-07-29T14:22:00;6.40;;;2.30;;
22030;SDS011;11179;52.106;21.024;2023-07-29T14:24:25;12.70;;;3.70;;
22030;SDS011;11179;52.106;21.024;2023-07-29T14:26:51;5.03;;;2.27;;